Terminal Aerodrome Forecast
Issued by NWS

Home | Current Version | Previous Version | Text Only | Print | Product List | Glossary On
Versions: 1 2 3 4 5 6 7 8 9 10 11 12 13 14 15 16 17 18 19 20 21 22 23 24 25 26
000
FTUS44 KBMX 301203 AAA
TAFEET
TAF AMD
KEET 301203Z 3012/3112 VRB03KT P6SM SCT010 OVC100
      TEMPO 3012/3014 4SM TSRA BR BKN025CB OVC100
     FM301400 25004KT P6SM VCSH BKN025 BKN080
     FM301700 23005KT P6SM -SHRA BKN040 BKN250
      TEMPO 3019/3023 4SM TSRA BR OVC035CB
     FM310100 00000KT P6SM OVC100=

USA.gov is the U.S. government's official web portal to all federal, state and local government web resources and services.